sensor_id;sensor_type;location;lat;lon;timestamp;pressure;altitude;pressure_sealevel;temperature
68012;BMP180;54794;48.348;7.878;2022-09-17T00:01:28;98855.00;;;17.90
68012;BMP180;54794;48.348;7.878;2022-09-17T00:03:58;98859.00;;;17.90
68012;BMP180;54794;48.348;7.878;2022-09-17T00:06:33;98856.00;;;17.80
68012;BMP180;54794;48.348;7.878;2022-09-17T00:09:03;98854.00;;;17.80
68012;BMP180;54794;48.348;7.878;2022-09-17T00:11:34;98860.00;;;17.90
68012;BMP180;54794;48.348;7.878;2022-09-17T00:14:03;98858.00;;;17.80
68012;BMP180;54794;48.348;7.878;2022-09-17T00:16:41;98853.00;;;17.90
68012;BMP180;54794;48.348;7.878;2022-09-17T00:19:15;98863.00;;;17.90
68012;BMP180;54794;48.348;7.878;2022-09-17T00:21:43;98843.00;;;17.80
68012;BMP180;54794;48.348;7.878;2022-09-17T00:24:12;98863.00;;;17.80
68012;BMP180;54794;48.348;7.878;2022-09-17T00:26:40;98860.00;;;17.80
68012;BMP180;54794;48.348;7.878;2022-09-17T00:29:07;98852.00;;;17.80
68012;BMP180;54794;48.348;7.878;2022-09-17T00:31:35;98871.00;;;17.70
68012;BMP180;54794;48.348;7.878;2022-09-17T00:34:04;98871.00;;;17.80
68012;BMP180;54794;48.348;7.878;2022-09-17T00:36:35;98867.00;;;17.80
68012;BMP180;54794;48.348;7.878;2022-09-17T00:39:04;98874.00;;;17.80
68012;BMP180;54794;48.348;7.878;2022-09-17T00:41:33;98868.00;;;17.80
68012;BMP180;54794;48.348;7.878;2022-09-17T00:47:15;98864.00;;;17.80
68012;BMP180;54794;48.348;7.878;2022-09-17T00:49:44;98870.00;;;17.80
68012;BMP180;54794;48.348;7.878;2022-09-17T00:52:19;98865.00;;;17.80
68012;BMP180;54794;48.348;7.878;2022-09-17T00:54:56;98878.00;;;17.80
68012;BMP180;54794;48.348;7.878;2022-09-17T00:57:25;98880.00;;;17.80
68012;BMP180;54794;48.348;7.878;2022-09-17T00:59:53;98876.00;;;17.70
68012;BMP180;54794;48.348;7.878;2022-09-17T01:02:20;98872.00;;;17.70
68012;BMP180;54794;48.348;7.878;2022-09-17T01:04:47;98882.00;;;17.70
68012;BMP180;54794;48.348;7.878;2022-09-17T01:07:35;98882.00;;;17.70
68012;BMP180;54794;48.348;7.878;2022-09-17T01:20:17;98889.00;;;17.60
68012;BMP180;54794;48.348;7.878;2022-09-17T01:32:59;98892.00;;;17.50
68012;BMP180;54794;48.348;7.878;2022-09-17T01:38:30;98864.00;;;17.50
68012;BMP180;54794;48.348;7.878;2022-09-17T01:41:12;98888.00;;;17.50
68012;BMP180;54794;48.348;7.878;2022-09-17T01:44:14;98884.00;;;17.50
68012;BMP180;54794;48.348;7.878;2022-09-17T01:46:50;98891.00;;;17.50
68012;BMP180;54794;48.348;7.878;2022-09-17T01:49:22;98889.00;;;17.50
68012;BMP180;54794;48.348;7.878;2022-09-17T01:51:52;98883.00;;;17.50
68012;BMP180;54794;48.348;7.878;2022-09-17T01:54:44;98883.00;;;17.50
68012;BMP180;54794;48.348;7.878;2022-09-17T01:57:26;98885.00;;;17.50
68012;BMP180;54794;48.348;7.878;2022-09-17T01:59:59;98880.00;;;17.50
68012;BMP180;54794;48.348;7.878;2022-09-17T02:02:58;98883.00;;;17.50
68012;BMP180;54794;48.348;7.878;2022-09-17T02:05:34;98882.00;;;17.50
68012;BMP180;54794;48.348;7.878;2022-09-17T02:08:17;98878.00;;;17.50
68012;BMP180;54794;48.348;7.878;2022-09-17T02:11:02;98872.00;;;17.50
68012;BMP180;54794;48.348;7.878;2022-09-17T02:13:37;98887.00;;;17.50
68012;BMP180;54794;48.348;7.878;2022-09-17T02:16:15;98884.00;;;17.50
68012;BMP180;54794;48.348;7.878;2022-09-17T02:22:13;98895.00;;;17.50
68012;BMP180;54794;48.348;7.878;2022-09-17T02:25:19;98890.00;;;17.50
68012;BMP180;54794;48.348;7.878;2022-09-17T02:28:36;98881.00;;;17.40
68012;BMP180;54794;48.348;7.878;2022-09-17T02:31:05;98901.00;;;17.40
68012;BMP180;54794;48.348;7.878;2022-09-17T02:33:34;98897.00;;;17.40
68012;BMP180;54794;48.348;7.878;2022-09-17T02:36:03;98886.00;;;17.50
68012;BMP180;54794;48.348;7.878;2022-09-17T02:38:30;98892.00;;;17.50
68012;BMP180;54794;48.348;7.878;2022-09-17T02:41:13;98882.00;;;17.50
68012;BMP180;54794;48.348;7.878;2022-09-17T02:49:57;98895.00;;;17.40
68012;BMP180;54794;48.348;7.878;2022-09-17T02:55:49;98889.00;;;17.40
68012;BMP180;54794;48.348;7.878;2022-09-17T02:58:50;98890.00;;;17.40
68012;BMP180;54794;48.348;7.878;2022-09-17T03:01:35;98893.00;;;17.40
68012;BMP180;54794;48.348;7.878;2022-09-17T03:04:09;98899.00;;;17.40
68012;BMP180;54794;48.348;7.878;2022-09-17T03:06:39;98893.00;;;17.40
68012;BMP180;54794;48.348;7.878;2022-09-17T03:09:08;98893.00;;;17.40
68012;BMP180;54794;48.348;7.878;2022-09-17T03:11:35;98898.00;;;17.40
68012;BMP180;54794;48.348;7.878;2022-09-17T03:14:02;98904.00;;;17.40
68012;BMP180;54794;48.348;7.878;2022-09-17T03:16:29;98906.00;;;17.40
68012;BMP180;54794;48.348;7.878;2022-09-17T03:18:55;98898.00;;;17.40
68012;BMP180;54794;48.348;7.878;2022-09-17T03:21:22;98903.00;;;17.40
68012;BMP180;54794;48.348;7.878;2022-09-17T03:23:49;98899.00;;;17.40
68012;BMP180;54794;48.348;7.878;2022-09-17T03:26:16;98904.00;;;17.40
68012;BMP180;54794;48.348;7.878;2022-09-17T03:28:43;98887.00;;;17.30
68012;BMP180;54794;48.348;7.878;2022-09-17T03:31:10;98905.00;;;17.30
68012;BMP180;54794;48.348;7.878;2022-09-17T03:33:37;98907.00;;;17.30
68012;BMP180;54794;48.348;7.878;2022-09-17T03:36:03;98916.00;;;17.30
68012;BMP180;54794;48.348;7.878;2022-09-17T03:38:30;98902.00;;;17.30
68012;BMP180;54794;48.348;7.878;2022-09-17T03:41:02;98911.00;;;17.30
68012;BMP180;54794;48.348;7.878;2022-09-17T03:43:30;98919.00;;;17.30
68012;BMP180;54794;48.348;7.878;2022-09-17T03:45:56;98909.00;;;17.30
68012;BMP180;54794;48.348;7.878;2022-09-17T03:48:23;98906.00;;;17.30
68012;BMP180;54794;48.348;7.878;2022-09-17T03:50:50;98903.00;;;17.30
68012;BMP180;54794;48.348;7.878;2022-09-17T03:53:17;98915.00;;;17.20
68012;BMP180;54794;48.348;7.878;2022-09-17T03:55:44;98912.00;;;17.30
68012;BMP180;54794;48.348;7.878;2022-09-17T03:58:11;98932.00;;;17.20
68012;BMP180;54794;48.348;7.878;2022-09-17T04:00:37;98927.00;;;17.20
68012;BMP180;54794;48.348;7.878;2022-09-17T04:03:05;98926.00;;;17.20
68012;BMP180;54794;48.348;7.878;2022-09-17T04:05:32;98951.00;;;17.20
68012;BMP180;54794;48.348;7.878;2022-09-17T04:07:59;98947.00;;;17.20
68012;BMP180;54794;48.348;7.878;2022-09-17T04:10:26;98945.00;;;17.20
68012;BMP180;54794;48.348;7.878;2022-09-17T04:12:53;98938.00;;;17.20
68012;BMP180;54794;48.348;7.878;2022-09-17T04:15:19;98951.00;;;17.20
68012;BMP180;54794;48.348;7.878;2022-09-17T04:17:46;98933.00;;;17.20
68012;BMP180;54794;48.348;7.878;2022-09-17T04:20:13;98941.00;;;17.20
68012;BMP180;54794;48.348;7.878;2022-09-17T04:22:40;98942.00;;;17.20
68012;BMP180;54794;48.348;7.878;2022-09-17T04:25:07;98938.00;;;17.20
68012;BMP180;54794;48.348;7.878;2022-09-17T04:27:34;98946.00;;;17.10
68012;BMP180;54794;48.348;7.878;2022-09-17T04:30:01;98941.00;;;17.20
68012;BMP180;54794;48.348;7.878;2022-09-17T04:32:28;98935.00;;;17.20
68012;BMP180;54794;48.348;7.878;2022-09-17T04:34:55;98935.00;;;17.20
68012;BMP180;54794;48.348;7.878;2022-09-17T04:37:21;98950.00;;;17.20
68012;BMP180;54794;48.348;7.878;2022-09-17T04:39:51;98959.00;;;17.20
68012;BMP180;54794;48.348;7.878;2022-09-17T04:42:18;98956.00;;;17.20
68012;BMP180;54794;48.348;7.878;2022-09-17T04:44:45;98960.00;;;17.20
68012;BMP180;54794;48.348;7.878;2022-09-17T04:47:12;98938.00;;;17.20
68012;BMP180;54794;48.348;7.878;2022-09-17T04:49:39;98947.00;;;17.20
68012;BMP180;54794;48.348;7.878;2022-09-17T04:52:06;98946.00;;;17.20
68012;BMP180;54794;48.348;7.878;2022-09-17T04:54:33;98957.00;;;17.20
68012;BMP180;54794;48.348;7.878;2022-09-17T04:57:00;98952.00;;;17.20
68012;BMP180;54794;48.348;7.878;2022-09-17T04:59:27;98938.00;;;17.20
68012;BMP180;54794;48.348;7.878;2022-09-17T05:01:54;98968.00;;;17.20
68012;BMP180;54794;48.348;7.878;2022-09-17T05:04:21;98965.00;;;17.10
68012;BMP180;54794;48.348;7.878;2022-09-17T05:06:48;98968.00;;;17.10
68012;BMP180;54794;48.348;7.878;2022-09-17T05:09:15;98971.00;;;17.10
68012;BMP180;54794;48.348;7.878;2022-09-17T05:11:42;98976.00;;;17.10
68012;BMP180;54794;48.348;7.878;2022-09-17T05:14:09;98976.00;;;17.10
68012;BMP180;54794;48.348;7.878;2022-09-17T05:16:35;98970.00;;;17.10
68012;BMP180;54794;48.348;7.878;2022-09-17T05:19:02;98967.00;;;17.10
68012;BMP180;54794;48.348;7.878;2022-09-17T05:21:29;98973.00;;;17.10
68012;BMP180;54794;48.348;7.878;2022-09-17T05:23:56;98972.00;;;17.10
68012;BMP180;54794;48.348;7.878;2022-09-17T05:26:24;98987.00;;;17.10
68012;BMP180;54794;48.348;7.878;2022-09-17T05:28:50;98976.00;;;17.10
68012;BMP180;54794;48.348;7.878;2022-09-17T05:31:17;98978.00;;;17.10
68012;BMP180;54794;48.348;7.878;2022-09-17T05:33:44;98963.00;;;17.10
68012;BMP180;54794;48.348;7.878;2022-09-17T05:36:11;98972.00;;;17.10
68012;BMP180;54794;48.348;7.878;2022-09-17T05:38:38;98989.00;;;17.00
68012;BMP180;54794;48.348;7.878;2022-09-17T05:41:05;98974.00;;;17.00
68012;BMP180;54794;48.348;7.878;2022-09-17T05:43:33;98974.00;;;17.00
68012;BMP180;54794;48.348;7.878;2022-09-17T05:46:02;98988.00;;;17.00
68012;BMP180;54794;48.348;7.878;2022-09-17T05:48:29;98992.00;;;17.00
68012;BMP180;54794;48.348;7.878;2022-09-17T05:50:56;98992.00;;;17.00
68012;BMP180;54794;48.348;7.878;2022-09-17T05:53:23;98992.00;;;17.00
68012;BMP180;54794;48.348;7.878;2022-09-17T05:55:50;98994.00;;;17.00
68012;BMP180;54794;48.348;7.878;2022-09-17T05:58:18;99002.00;;;17.00
68012;BMP180;54794;48.348;7.878;2022-09-17T06:00:45;99012.00;;;17.00
68012;BMP180;54794;48.348;7.878;2022-09-17T06:03:17;99021.00;;;17.00
68012;BMP180;54794;48.348;7.878;2022-09-17T06:05:53;99007.00;;;16.90
68012;BMP180;54794;48.348;7.878;2022-09-17T06:08:22;99009.00;;;16.90
68012;BMP180;54794;48.348;7.878;2022-09-17T06:10:49;99008.00;;;16.90
68012;BMP180;54794;48.348;7.878;2022-09-17T06:13:17;98996.00;;;16.90
68012;BMP180;54794;48.348;7.878;2022-09-17T06:15:52;99008.00;;;16.90
68012;BMP180;54794;48.348;7.878;2022-09-17T06:18:19;98997.00;;;16.90
68012;BMP180;54794;48.348;7.878;2022-09-17T06:21:01;99002.00;;;16.90
68012;BMP180;54794;48.348;7.878;2022-09-17T06:23:32;99006.00;;;16.90
68012;BMP180;54794;48.348;7.878;2022-09-17T06:26:04;99010.00;;;16.90
68012;BMP180;54794;48.348;7.878;2022-09-17T06:28:32;99012.00;;;17.00
68012;BMP180;54794;48.348;7.878;2022-09-17T06:31:06;99022.00;;;17.00
68012;BMP180;54794;48.348;7.878;2022-09-17T06:33:34;99025.00;;;17.00
68012;BMP180;54794;48.348;7.878;2022-09-17T06:36:07;99015.00;;;17.00
68012;BMP180;54794;48.348;7.878;2022-09-17T06:38:39;99020.00;;;17.00
68012;BMP180;54794;48.348;7.878;2022-09-17T06:41:06;99029.00;;;17.10
68012;BMP180;54794;48.348;7.878;2022-09-17T06:43:33;99014.00;;;17.10
68012;BMP180;54794;48.348;7.878;2022-09-17T06:46:03;99036.00;;;17.10
68012;BMP180;54794;48.348;7.878;2022-09-17T06:48:36;99028.00;;;17.20
68012;BMP180;54794;48.348;7.878;2022-09-17T06:51:07;99039.00;;;17.20
68012;BMP180;54794;48.348;7.878;2022-09-17T06:53:35;99042.00;;;17.20
68012;BMP180;54794;48.348;7.878;2022-09-17T06:56:05;99049.00;;;17.20
68012;BMP180;54794;48.348;7.878;2022-09-17T06:58:35;99038.00;;;17.20
68012;BMP180;54794;48.348;7.878;2022-09-17T07:01:12;99052.00;;;17.30
68012;BMP180;54794;48.348;7.878;2022-09-17T07:03:41;99036.00;;;17.30
68012;BMP180;54794;48.348;7.878;2022-09-17T07:06:11;99041.00;;;17.30
68012;BMP180;54794;48.348;7.878;2022-09-17T07:08:38;99042.00;;;17.30
68012;BMP180;54794;48.348;7.878;2022-09-17T07:11:05;99048.00;;;17.30
68012;BMP180;54794;48.348;7.878;2022-09-17T07:13:32;99054.00;;;17.30
68012;BMP180;54794;48.348;7.878;2022-09-17T07:16:02;99048.00;;;17.30
68012;BMP180;54794;48.348;7.878;2022-09-17T07:18:30;99033.00;;;17.30
68012;BMP180;54794;48.348;7.878;2022-09-17T07:20:59;99034.00;;;17.30
68012;BMP180;54794;48.348;7.878;2022-09-17T07:23:32;99058.00;;;17.30
68012;BMP180;54794;48.348;7.878;2022-09-17T07:26:14;99056.00;;;17.30
68012;BMP180;54794;48.348;7.878;2022-09-17T07:28:42;99063.00;;;17.30
68012;BMP180;54794;48.348;7.878;2022-09-17T07:31:11;99066.00;;;17.30
68012;BMP180;54794;48.348;7.878;2022-09-17T07:33:43;99063.00;;;17.30
68012;BMP180;54794;48.348;7.878;2022-09-17T07:36:11;99034.00;;;17.20
68012;BMP180;54794;48.348;7.878;2022-09-17T07:38:38;99068.00;;;17.30
68012;BMP180;54794;48.348;7.878;2022-09-17T07:41:16;99071.00;;;17.30
68012;BMP180;54794;48.348;7.878;2022-09-17T07:43:44;99053.00;;;17.30
68012;BMP180;54794;48.348;7.878;2022-09-17T07:46:17;99074.00;;;17.30
68012;BMP180;54794;48.348;7.878;2022-09-17T07:48:45;99066.00;;;17.30
68012;BMP180;54794;48.348;7.878;2022-09-17T07:51:22;99074.00;;;17.30
68012;BMP180;54794;48.348;7.878;2022-09-17T07:53:58;99063.00;;;17.30
68012;BMP180;54794;48.348;7.878;2022-09-17T07:56:26;99088.00;;;17.30
68012;BMP180;54794;48.348;7.878;2022-09-17T07:58:54;99082.00;;;17.30
68012;BMP180;54794;48.348;7.878;2022-09-17T08:01:21;99079.00;;;17.30
68012;BMP180;54794;48.348;7.878;2022-09-17T08:03:51;99096.00;;;17.30
68012;BMP180;54794;48.348;7.878;2022-09-17T08:06:22;99092.00;;;17.30
68012;BMP180;54794;48.348;7.878;2022-09-17T08:08:51;99085.00;;;17.30
68012;BMP180;54794;48.348;7.878;2022-09-17T08:11:21;99080.00;;;17.30
68012;BMP180;54794;48.348;7.878;2022-09-17T08:14:14;99095.00;;;17.30
68012;BMP180;54794;48.348;7.878;2022-09-17T08:16:41;99091.00;;;17.30
68012;BMP180;54794;48.348;7.878;2022-09-17T08:19:07;99097.00;;;17.40
68012;BMP180;54794;48.348;7.878;2022-09-17T08:21:36;99089.00;;;17.40
68012;BMP180;54794;48.348;7.878;2022-09-17T08:24:03;99084.00;;;17.40
68012;BMP180;54794;48.348;7.878;2022-09-17T08:26:30;99088.00;;;17.40
68012;BMP180;54794;48.348;7.878;2022-09-17T08:28:57;99086.00;;;17.40
68012;BMP180;54794;48.348;7.878;2022-09-17T08:31:26;99094.00;;;17.30
68012;BMP180;54794;48.348;7.878;2022-09-17T08:33:53;99089.00;;;17.30
68012;BMP180;54794;48.348;7.878;2022-09-17T08:36:21;99103.00;;;17.30
68012;BMP180;54794;48.348;7.878;2022-09-17T08:38:53;99103.00;;;17.30
68012;BMP180;54794;48.348;7.878;2022-09-17T08:44:34;99108.00;;;17.30
68012;BMP180;54794;48.348;7.878;2022-09-17T08:49:56;99117.00;;;17.40
68012;BMP180;54794;48.348;7.878;2022-09-17T08:55:29;99116.00;;;17.40
68012;BMP180;54794;48.348;7.878;2022-09-17T09:01:32;99109.00;;;17.50
68012;BMP180;54794;48.348;7.878;2022-09-17T09:07:33;99119.00;;;17.60
68012;BMP180;54794;48.348;7.878;2022-09-17T09:10:17;99115.00;;;17.60
68012;BMP180;54794;48.348;7.878;2022-09-17T09:12:47;99115.00;;;17.70
68012;BMP180;54794;48.348;7.878;2022-09-17T09:15:26;99115.00;;;17.70
68012;BMP180;54794;48.348;7.878;2022-09-17T09:18:02;99126.00;;;17.80
68012;BMP180;54794;48.348;7.878;2022-09-17T09:20:50;99113.00;;;17.80
68012;BMP180;54794;48.348;7.878;2022-09-17T09:24:21;99123.00;;;17.80
68012;BMP180;54794;48.348;7.878;2022-09-17T09:30:10;99131.00;;;17.90
68012;BMP180;54794;48.348;7.878;2022-09-17T09:32:59;99122.00;;;18.00
68012;BMP180;54794;48.348;7.878;2022-09-17T09:35:34;99132.00;;;18.10
68012;BMP180;54794;48.348;7.878;2022-09-17T09:40:57;99134.00;;;18.20
68012;BMP180;54794;48.348;7.878;2022-09-17T09:43:44;99123.00;;;18.30
68012;BMP180;54794;48.348;7.878;2022-09-17T09:50:07;99119.00;;;18.30
68012;BMP180;54794;48.348;7.878;2022-09-17T09:52:55;99126.00;;;18.40
68012;BMP180;54794;48.348;7.878;2022-09-17T09:56:09;99128.00;;;18.30
68012;BMP180;54794;48.348;7.878;2022-09-17T09:58:41;99126.00;;;18.50
68012;BMP180;54794;48.348;7.878;2022-09-17T10:01:18;99117.00;;;18.50
68012;BMP180;54794;48.348;7.878;2022-09-17T10:03:51;99131.00;;;18.60
68012;BMP180;54794;48.348;7.878;2022-09-17T10:06:18;99113.00;;;18.60
68012;BMP180;54794;48.348;7.878;2022-09-17T10:11:23;99130.00;;;18.60
68012;BMP180;54794;48.348;7.878;2022-09-17T10:13:50;99120.00;;;18.60
68012;BMP180;54794;48.348;7.878;2022-09-17T10:16:22;99129.00;;;18.60
68012;BMP180;54794;48.348;7.878;2022-09-17T10:21:35;99139.00;;;18.70
68012;BMP180;54794;48.348;7.878;2022-09-17T10:24:15;99130.00;;;18.70
68012;BMP180;54794;48.348;7.878;2022-09-17T10:26:47;99113.00;;;18.70
68012;BMP180;54794;48.348;7.878;2022-09-17T10:29:18;99115.00;;;18.70
68012;BMP180;54794;48.348;7.878;2022-09-17T10:31:52;99122.00;;;18.80
68012;BMP180;54794;48.348;7.878;2022-09-17T10:34:25;99116.00;;;18.80
68012;BMP180;54794;48.348;7.878;2022-09-17T10:36:53;99126.00;;;18.80
68012;BMP180;54794;48.348;7.878;2022-09-17T10:39:40;99133.00;;;18.70
68012;BMP180;54794;48.348;7.878;2022-09-17T10:42:17;99132.00;;;18.80
68012;BMP180;54794;48.348;7.878;2022-09-17T10:44:56;99119.00;;;18.80
68012;BMP180;54794;48.348;7.878;2022-09-17T10:47:36;99135.00;;;18.80
68012;BMP180;54794;48.348;7.878;2022-09-17T10:50:19;99125.00;;;18.80
68012;BMP180;54794;48.348;7.878;2022-09-17T10:52:53;99136.00;;;18.90
68012;BMP180;54794;48.348;7.878;2022-09-17T10:55:49;99133.00;;;18.90
68012;BMP180;54794;48.348;7.878;2022-09-17T10:58:46;99121.00;;;19.00
68012;BMP180;54794;48.348;7.878;2022-09-17T11:01:52;99137.00;;;19.00
68012;BMP180;54794;48.348;7.878;2022-09-17T11:10:11;99133.00;;;19.00
68012;BMP180;54794;48.348;7.878;2022-09-17T11:18:36;99121.00;;;19.00
68012;BMP180;54794;48.348;7.878;2022-09-17T11:21:24;99131.00;;;19.00
68012;BMP180;54794;48.348;7.878;2022-09-17T11:28:00;99120.00;;;19.00
68012;BMP180;54794;48.348;7.878;2022-09-17T11:30:32;99109.00;;;19.10
68012;BMP180;54794;48.348;7.878;2022-09-17T11:33:32;99118.00;;;19.10
68012;BMP180;54794;48.348;7.878;2022-09-17T11:36:23;99120.00;;;19.20
68012;BMP180;54794;48.348;7.878;2022-09-17T11:39:02;99115.00;;;19.20
68012;BMP180;54794;48.348;7.878;2022-09-17T11:41:41;99106.00;;;19.30
68012;BMP180;54794;48.348;7.878;2022-09-17T11:44:25;99117.00;;;19.30
68012;BMP180;54794;48.348;7.878;2022-09-17T11:47:09;99106.00;;;19.40
68012;BMP180;54794;48.348;7.878;2022-09-17T11:49:50;99090.00;;;19.50
68012;BMP180;54794;48.348;7.878;2022-09-17T11:52:32;99087.00;;;19.60
68012;BMP180;54794;48.348;7.878;2022-09-17T11:55:25;99102.00;;;19.70
68012;BMP180;54794;48.348;7.878;2022-09-17T11:58:06;99103.00;;;19.80
68012;BMP180;54794;48.348;7.878;2022-09-17T12:00:44;99089.00;;;19.90
68012;BMP180;54794;48.348;7.878;2022-09-17T12:03:41;99087.00;;;20.00
68012;BMP180;54794;48.348;7.878;2022-09-17T12:06:17;99091.00;;;20.20
68012;BMP180;54794;48.348;7.878;2022-09-17T12:09:25;99083.00;;;20.30
68012;BMP180;54794;48.348;7.878;2022-09-17T12:12:21;99079.00;;;20.40
68012;BMP180;54794;48.348;7.878;2022-09-17T12:15:39;99075.00;;;20.50
68012;BMP180;54794;48.348;7.878;2022-09-17T12:18:28;99080.00;;;20.60
68012;BMP180;54794;48.348;7.878;2022-09-17T12:21:03;99064.00;;;20.60
68012;BMP180;54794;48.348;7.878;2022-09-17T12:23:47;99066.00;;;20.60
68012;BMP180;54794;48.348;7.878;2022-09-17T12:26:24;99067.00;;;20.60
68012;BMP180;54794;48.348;7.878;2022-09-17T12:29:06;99072.00;;;20.60
68012;BMP180;54794;48.348;7.878;2022-09-17T12:52:56;99060.00;;;20.30
68012;BMP180;54794;48.348;7.878;2022-09-17T12:59:11;99055.00;;;20.30
68012;BMP180;54794;48.348;7.878;2022-09-17T13:01:56;99035.00;;;20.40
68012;BMP180;54794;48.348;7.878;2022-09-17T13:05:28;99056.00;;;20.40
68012;BMP180;54794;48.348;7.878;2022-09-17T13:14:06;99048.00;;;20.60
68012;BMP180;54794;48.348;7.878;2022-09-17T13:16:47;99037.00;;;20.70
68012;BMP180;54794;48.348;7.878;2022-09-17T13:22:25;99036.00;;;21.00
68012;BMP180;54794;48.348;7.878;2022-09-17T13:25:20;99025.00;;;21.20
68012;BMP180;54794;48.348;7.878;2022-09-17T13:27:50;99029.00;;;21.30
68012;BMP180;54794;48.348;7.878;2022-09-17T13:30:59;99028.00;;;21.40
68012;BMP180;54794;48.348;7.878;2022-09-17T13:33:55;99032.00;;;21.50
68012;BMP180;54794;48.348;7.878;2022-09-17T13:36:35;99020.00;;;21.60
68012;BMP180;54794;48.348;7.878;2022-09-17T13:39:08;99020.00;;;21.80
68012;BMP180;54794;48.348;7.878;2022-09-17T13:41:39;99019.00;;;21.90
68012;BMP180;54794;48.348;7.878;2022-09-17T13:44:09;99018.00;;;22.00
68012;BMP180;54794;48.348;7.878;2022-09-17T13:46:38;99029.00;;;22.10
68012;BMP180;54794;48.348;7.878;2022-09-17T13:49:13;99040.00;;;22.20
68012;BMP180;54794;48.348;7.878;2022-09-17T13:51:41;99040.00;;;22.30
68012;BMP180;54794;48.348;7.878;2022-09-17T13:54:10;99038.00;;;22.50
68012;BMP180;54794;48.348;7.878;2022-09-17T13:57:04;99041.00;;;22.60
68012;BMP180;54794;48.348;7.878;2022-09-17T13:59:35;99041.00;;;22.70
68012;BMP180;54794;48.348;7.878;2022-09-17T14:15:33;99061.00;;;23.00
68012;BMP180;54794;48.348;7.878;2022-09-17T14:21:13;99072.00;;;23.00
68012;BMP180;54794;48.348;7.878;2022-09-17T14:23:48;99067.00;;;23.00
68012;BMP180;54794;48.348;7.878;2022-09-17T14:26:34;99058.00;;;23.00
68012;BMP180;54794;48.348;7.878;2022-09-17T14:29:35;99057.00;;;23.00
68012;BMP180;54794;48.348;7.878;2022-09-17T14:32:13;99048.00;;;23.00
68012;BMP180;54794;48.348;7.878;2022-09-17T14:34:41;99052.00;;;23.00
68012;BMP180;54794;48.348;7.878;2022-09-17T14:37:16;99031.00;;;23.00
68012;BMP180;54794;48.348;7.878;2022-09-17T14:39:47;99042.00;;;23.00
68012;BMP180;54794;48.348;7.878;2022-09-17T14:42:23;99049.00;;;23.10
68012;BMP180;54794;48.348;7.878;2022-09-17T14:45:02;99048.00;;;23.10
68012;BMP180;54794;48.348;7.878;2022-09-17T14:47:30;99050.00;;;23.10
68012;BMP180;54794;48.348;7.878;2022-09-17T14:50:25;99047.00;;;23.10
68012;BMP180;54794;48.348;7.878;2022-09-17T14:52:53;99037.00;;;23.10
68012;BMP180;54794;48.348;7.878;2022-09-17T14:55:26;99028.00;;;23.10
68012;BMP180;54794;48.348;7.878;2022-09-17T14:57:59;99049.00;;;23.10
68012;BMP180;54794;48.348;7.878;2022-09-17T15:00:36;99047.00;;;23.00
68012;BMP180;54794;48.348;7.878;2022-09-17T15:03:04;99049.00;;;23.00
68012;BMP180;54794;48.348;7.878;2022-09-17T15:05:34;99058.00;;;23.00
68012;BMP180;54794;48.348;7.878;2022-09-17T15:11:02;99051.00;;;22.80
68012;BMP180;54794;48.348;7.878;2022-09-17T15:13:51;99043.00;;;22.70
68012;BMP180;54794;48.348;7.878;2022-09-17T15:16:25;99053.00;;;22.70
68012;BMP180;54794;48.348;7.878;2022-09-17T15:18:56;99054.00;;;22.60
68012;BMP180;54794;48.348;7.878;2022-09-17T15:21:47;99048.00;;;22.50
68012;BMP180;54794;48.348;7.878;2022-09-17T15:27:18;99055.00;;;22.30
68012;BMP180;54794;48.348;7.878;2022-09-17T15:30:00;99034.00;;;22.20
68012;BMP180;54794;48.348;7.878;2022-09-17T15:32:29;99052.00;;;22.10
68012;BMP180;54794;48.348;7.878;2022-09-17T15:37:44;99055.00;;;21.80
68012;BMP180;54794;48.348;7.878;2022-09-17T15:40:38;99065.00;;;21.60
68012;BMP180;54794;48.348;7.878;2022-09-17T15:43:32;99066.00;;;21.50
68012;BMP180;54794;48.348;7.878;2022-09-17T15:46:28;99063.00;;;21.40
68012;BMP180;54794;48.348;7.878;2022-09-17T15:48:59;99055.00;;;21.40
68012;BMP180;54794;48.348;7.878;2022-09-17T15:51:35;99059.00;;;21.30
68012;BMP180;54794;48.348;7.878;2022-09-17T15:54:05;99062.00;;;21.30
68012;BMP180;54794;48.348;7.878;2022-09-17T15:56:40;99060.00;;;21.30
68012;BMP180;54794;48.348;7.878;2022-09-17T15:59:29;99060.00;;;21.20
68012;BMP180;54794;48.348;7.878;2022-09-17T16:02:00;99049.00;;;21.20
68012;BMP180;54794;48.348;7.878;2022-09-17T16:04:33;99059.00;;;21.10
68012;BMP180;54794;48.348;7.878;2022-09-17T16:09:47;99079.00;;;21.00
68012;BMP180;54794;48.348;7.878;2022-09-17T16:12:22;99057.00;;;21.00
68012;BMP180;54794;48.348;7.878;2022-09-17T16:14:55;99083.00;;;20.90
68012;BMP180;54794;48.348;7.878;2022-09-17T16:17:46;99081.00;;;20.80
68012;BMP180;54794;48.348;7.878;2022-09-17T16:20:22;99091.00;;;20.80
68012;BMP180;54794;48.348;7.878;2022-09-17T16:22:51;99080.00;;;20.70
68012;BMP180;54794;48.348;7.878;2022-09-17T16:25:26;99091.00;;;20.70
68012;BMP180;54794;48.348;7.878;2022-09-17T16:30:25;99103.00;;;20.50
68012;BMP180;54794;48.348;7.878;2022-09-17T16:32:52;99104.00;;;20.40
68012;BMP180;54794;48.348;7.878;2022-09-17T16:35:23;99102.00;;;20.40
68012;BMP180;54794;48.348;7.878;2022-09-17T16:37:53;99101.00;;;20.30
68012;BMP180;54794;48.348;7.878;2022-09-17T16:40:24;99105.00;;;20.20
68012;BMP180;54794;48.348;7.878;2022-09-17T16:42:53;99116.00;;;20.20
68012;BMP180;54794;48.348;7.878;2022-09-17T16:45:20;99125.00;;;20.10
68012;BMP180;54794;48.348;7.878;2022-09-17T16:47:53;99132.00;;;20.10
68012;BMP180;54794;48.348;7.878;2022-09-17T16:50:20;99111.00;;;20.00
68012;BMP180;54794;48.348;7.878;2022-09-17T16:52:48;99128.00;;;20.00
68012;BMP180;54794;48.348;7.878;2022-09-17T16:55:16;99121.00;;;20.00
68012;BMP180;54794;48.348;7.878;2022-09-17T16:57:43;99134.00;;;20.00
68012;BMP180;54794;48.348;7.878;2022-09-17T17:00:14;99122.00;;;19.90
68012;BMP180;54794;48.348;7.878;2022-09-17T17:02:43;99147.00;;;19.90
68012;BMP180;54794;48.348;7.878;2022-09-17T17:05:10;99147.00;;;19.90
68012;BMP180;54794;48.348;7.878;2022-09-17T17:07:37;99147.00;;;19.80
68012;BMP180;54794;48.348;7.878;2022-09-17T17:10:05;99165.00;;;19.80
68012;BMP180;54794;48.348;7.878;2022-09-17T17:12:35;99155.00;;;19.80
68012;BMP180;54794;48.348;7.878;2022-09-17T17:15:04;99156.00;;;19.70
68012;BMP180;54794;48.348;7.878;2022-09-17T17:17:35;99166.00;;;19.70
68012;BMP180;54794;48.348;7.878;2022-09-17T17:20:04;99165.00;;;19.50